createdAt,value
2023-04-13T00:02:10.778Z,12.06
2023-04-13T00:04:37.553Z,11.91
2023-04-13T00:07:04.218Z,11.97
2023-04-13T00:09:31.143Z,11.88
2023-04-13T00:12:01.518Z,11.84
2023-04-13T00:14:33.981Z,11.70
2023-04-13T00:17:00.939Z,11.52
2023-04-13T00:19:28.543Z,11.44
2023-04-13T00:21:55.104Z,11.55
2023-04-13T00:24:22.031Z,11.55
2023-04-13T00:26:48.727Z,11.62
2023-04-13T00:29:15.621Z,11.41
2023-04-13T00:31:43.713Z,11.38
2023-04-13T00:34:10.398Z,11.51
2023-04-13T00:36:37.219Z,11.23
2023-04-13T00:39:04.270Z,11.17
2023-04-13T00:41:31.520Z,11.14
2023-04-13T00:43:59.154Z,11.05
2023-04-13T00:46:29.604Z,10.18
2023-04-13T00:48:58.249Z,10.40
2023-04-13T00:51:24.930Z,10.67
2023-04-13T00:53:51.618Z,10.83
2023-04-13T00:56:19.205Z,10.87
2023-04-13T00:58:45.817Z,10.93
2023-04-13T01:01:12.522Z,10.77
2023-04-13T01:03:40.081Z,10.65
2023-04-13T01:06:10.125Z,10.20
2023-04-13T01:08:40.090Z,10.59
2023-04-13T01:11:15.371Z,10.70
2023-04-13T01:13:48.647Z,10.79
2023-04-13T01:16:25.435Z,10.88
2023-04-13T01:21:39.268Z,10.72
2023-04-13T01:24:17.992Z,10.92
2023-04-13T01:26:58.481Z,10.68
2023-04-13T01:29:26.761Z,10.68
2023-04-13T01:31:54.418Z,10.76
2023-04-13T01:34:23.317Z,10.85
2023-04-13T01:36:50.341Z,10.97
2023-04-13T01:39:19.382Z,10.98
2023-04-13T01:41:47.731Z,10.75
2023-04-13T01:44:14.529Z,9.56
2023-04-13T01:46:47.743Z,9.86
2023-04-13T01:49:52.498Z,9.76
2023-04-13T01:52:32.459Z,9.82
2023-04-13T01:55:00.842Z,9.28
2023-04-13T01:57:31.218Z,9.71
2023-04-13T02:00:14.285Z,9.64
2023-04-13T02:02:45.186Z,9.71
2023-04-13T02:05:12.422Z,9.82
2023-04-13T02:07:40.018Z,10.09
2023-04-13T02:10:06.926Z,10.36
2023-04-13T02:12:34.301Z,9.98
2023-04-13T02:15:01.365Z,10.32
2023-04-13T02:17:29.564Z,10.49
2023-04-13T02:19:57.634Z,10.36
2023-04-13T02:22:24.480Z,10.30
2023-04-13T02:24:51.279Z,10.00
2023-04-13T02:27:18.132Z,9.90
2023-04-13T02:29:44.858Z,10.01
2023-04-13T02:32:11.781Z,10.15
2023-04-13T02:34:38.765Z,10.09
2023-04-13T02:37:09.463Z,10.26
2023-04-13T02:39:37.395Z,10.24
2023-04-13T02:42:05.561Z,10.36
2023-04-13T02:44:34.094Z,10.02
2023-04-13T02:47:01.519Z,9.36
2023-04-13T02:49:28.413Z,9.80
2023-04-13T02:52:31.516Z,9.82
2023-04-13T02:55:03.093Z,9.75
2023-04-13T02:57:42.257Z,9.65
2023-04-13T03:00:10.813Z,9.87
2023-04-13T03:02:47.063Z,10.02
2023-04-13T03:05:16.715Z,9.54
2023-04-13T03:07:46.664Z,9.71
2023-04-13T03:10:14.130Z,9.96
2023-04-13T03:12:42.748Z,9.87
2023-04-13T03:15:12.111Z,10.00
2023-04-13T03:17:40.866Z,9.85
2023-04-13T03:20:11.144Z,9.89
2023-04-13T03:22:39.649Z,9.77
2023-04-13T03:25:08.392Z,9.77
2023-04-13T03:27:38.487Z,9.60
2023-04-13T03:30:08.156Z,9.08
2023-04-13T03:32:44.915Z,9.37
2023-04-13T03:35:12.009Z,9.48
2023-04-13T03:37:43.493Z,9.37
2023-04-13T03:40:27.694Z,9.18
2023-04-13T03:42:55.788Z,9.28
2023-04-13T03:45:25.394Z,9.40
2023-04-13T03:47:55.529Z,9.29
2023-04-13T03:50:23.750Z,9.55
2023-04-13T03:52:52.188Z,9.59
2023-04-13T03:55:19.150Z,9.49
2023-04-13T03:57:49.437Z,9.44
2023-04-13T04:00:20.492Z,9.44
2023-04-13T04:03:01.220Z,9.49
2023-04-13T04:05:36.675Z,9.39
2023-04-13T04:08:04.884Z,9.41
2023-04-13T04:10:31.663Z,9.40
2023-04-13T04:12:59.560Z,9.16
2023-04-13T04:15:27.866Z,9.19
2023-04-13T04:18:00.779Z,9.34
2023-04-13T04:20:28.719Z,9.52
2023-04-13T04:23:01.047Z,9.30
2023-04-13T04:25:33.471Z,9.29
2023-04-13T04:28:02.410Z,9.06
2023-04-13T04:30:33.905Z,9.23
2023-04-13T04:33:02.757Z,8.91
2023-04-13T04:35:34.651Z,9.07
2023-04-13T04:38:04.495Z,9.04
2023-04-13T04:40:36.890Z,8.47
2023-04-13T04:43:06.447Z,8.54
2023-04-13T04:45:52.181Z,8.93
2023-04-13T04:48:20.484Z,9.36
2023-04-13T04:50:49.022Z,9.58
2023-04-13T04:53:17.374Z,9.75
2023-04-13T04:55:46.498Z,9.89
2023-04-13T04:58:23.444Z,9.98
2023-04-13T05:00:56.819Z,10.14
2023-04-13T05:03:23.887Z,10.30
2023-04-13T05:05:57.827Z,10.27
2023-04-13T05:08:30.640Z,10.14
2023-04-13T05:10:57.479Z,10.50
2023-04-13T05:13:24.189Z,10.30
2023-04-13T05:16:10.820Z,10.64
2023-04-13T05:18:45.959Z,10.71
2023-04-13T05:21:24.445Z,10.77
2023-04-13T05:23:58.205Z,11.03
2023-04-13T05:26:25.656Z,11.04
2023-04-13T05:28:54.604Z,11.31
2023-04-13T05:31:24.719Z,11.20
2023-04-13T05:33:52.891Z,11.35
2023-04-13T05:36:19.610Z,11.61
2023-04-13T05:38:47.804Z,11.67
2023-04-13T05:41:20.058Z,11.77
2023-04-13T05:43:46.933Z,11.84
2023-04-13T05:46:13.728Z,11.83
2023-04-13T05:48:42.061Z,12.04
2023-04-13T05:51:09.288Z,12.01
2023-04-13T05:53:36.571Z,12.13
2023-04-13T05:56:03.542Z,12.11
2023-04-13T05:58:31.814Z,12.24
2023-04-13T06:01:12.835Z,12.37
2023-04-13T06:03:40.050Z,12.31
2023-04-13T06:06:07.051Z,12.13
2023-04-13T06:08:34.660Z,12.25
2023-04-13T06:11:01.645Z,12.52
2023-04-13T06:13:28.554Z,12.46
2023-04-13T06:15:55.236Z,12.72
2023-04-13T06:18:22.336Z,12.62
2023-04-13T06:20:48.983Z,12.66
2023-04-13T06:23:15.816Z,12.67
2023-04-13T06:25:42.644Z,12.70
2023-04-13T06:28:12.352Z,12.58
2023-04-13T06:30:42.284Z,12.29
2023-04-13T06:33:12.620Z,12.29
2023-04-13T06:35:41.101Z,12.83
2023-04-13T06:38:10.139Z,12.98
2023-04-13T06:40:48.691Z,11.96
2023-04-13T06:43:26.413Z,12.26
2023-04-13T06:46:14.520Z,12.90
2023-04-13T06:48:44.202Z,13.03
2023-04-13T06:51:12.924Z,13.35
2023-04-13T06:53:42.133Z,13.53
2023-04-13T06:56:08.912Z,13.67
2023-04-13T06:58:36.966Z,13.63
2023-04-13T07:01:04.431Z,13.73
2023-04-13T07:03:34.084Z,13.52
2023-04-13T07:06:02.713Z,13.64
2023-04-13T07:08:29.583Z,13.95
2023-04-13T07:10:57.673Z,14.29
2023-04-13T07:13:32.680Z,13.62
2023-04-13T07:15:59.713Z,13.78
2023-04-13T07:18:27.000Z,14.43
2023-04-13T07:20:54.415Z,14.19
2023-04-13T07:23:24.760Z,14.24
2023-04-13T07:25:51.884Z,14.65
2023-04-13T07:28:23.357Z,14.82
2023-04-13T07:30:53.687Z,15.10
2023-04-13T07:33:21.039Z,14.92
2023-04-13T07:35:51.548Z,15.19
2023-04-13T07:38:18.403Z,15.06
2023-04-13T07:40:45.913Z,15.22
2023-04-13T07:43:12.849Z,14.91
2023-04-13T07:45:42.604Z,14.98
2023-04-13T07:48:09.892Z,15.24
2023-04-13T07:50:42.814Z,15.19
2023-04-13T07:53:13.637Z,15.26
2023-04-13T07:55:41.432Z,15.29
2023-04-13T07:58:09.281Z,15.23
2023-04-13T08:00:36.917Z,15.55
2023-04-13T08:03:06.404Z,15.66
2023-04-13T08:05:36.723Z,15.73
2023-04-13T08:08:03.549Z,15.85
2023-04-13T08:10:30.621Z,16.11
2023-04-13T08:13:00.305Z,15.97
2023-04-13T08:15:27.330Z,16.40
2023-04-13T08:17:54.596Z,16.24
2023-04-13T08:20:23.021Z,15.95
2023-04-13T08:22:52.965Z,15.79
2023-04-13T08:25:20.934Z,16.46
2023-04-13T08:27:47.862Z,16.61
2023-04-13T08:30:14.725Z,15.50
2023-04-13T08:33:07.841Z,15.65
2023-04-13T08:35:39.161Z,16.11
2023-04-13T08:38:09.319Z,16.62
2023-04-13T08:40:40.760Z,16.42
2023-04-13T08:43:13.312Z,16.58
2023-04-13T08:45:43.563Z,16.96
2023-04-13T08:48:11.749Z,17.01
2023-04-13T08:50:40.310Z,17.26
2023-04-13T08:53:09.284Z,17.50
2023-04-13T08:55:43.087Z,17.85
2023-04-13T08:58:12.368Z,18.15
2023-04-13T09:00:41.804Z,18.12
2023-04-13T09:03:14.077Z,18.29
2023-04-13T09:05:45.744Z,18.14
2023-04-13T09:08:14.265Z,18.36
2023-04-13T09:10:45.875Z,18.29
2023-04-13T09:13:12.840Z,18.43
2023-04-13T09:15:41.175Z,18.69
2023-04-13T09:18:18.948Z,18.58
2023-04-13T09:20:58.127Z,18.80
2023-04-13T09:23:24.791Z,18.72
2023-04-13T09:26:04.163Z,19.11
2023-04-13T09:28:31.018Z,19.28
2023-04-13T09:31:04.542Z,19.54
2023-04-13T09:33:34.153Z,19.83
2023-04-13T09:36:08.988Z,20.14
2023-04-13T09:38:35.825Z,20.25
2023-04-13T09:41:03.021Z,20.36
2023-04-13T09:43:39.740Z,20.55
2023-04-13T09:46:14.039Z,20.10
2023-04-13T09:48:41.144Z,20.63
2023-04-13T09:51:08.736Z,20.89
2023-04-13T09:53:49.770Z,21.14
2023-04-13T09:56:17.401Z,21.29
2023-04-13T09:58:45.116Z,21.53
2023-04-13T10:01:12.166Z,21.86
2023-04-13T10:03:39.069Z,21.67
2023-04-13T10:06:07.868Z,21.73
2023-04-13T10:08:38.898Z,22.16
2023-04-13T10:11:08.703Z,22.38
2023-04-13T10:13:37.864Z,22.27
2023-04-13T10:16:19.804Z,21.89
2023-04-13T10:18:53.226Z,22.56
2023-04-13T10:21:20.159Z,22.77
2023-04-13T10:23:46.976Z,22.83
2023-04-13T10:26:13.963Z,23.24
2023-04-13T10:28:49.849Z,22.84
2023-04-13T10:31:16.965Z,23.02
2023-04-13T10:33:47.409Z,23.18
2023-04-13T10:36:14.128Z,22.43
2023-04-13T10:38:44.650Z,22.87
2023-04-13T10:41:22.759Z,23.19
2023-04-13T10:43:59.716Z,23.02
2023-04-13T10:46:26.803Z,23.31
2023-04-13T10:48:59.390Z,23.37
2023-04-13T10:51:27.618Z,23.59
2023-04-13T10:54:04.247Z,23.56
2023-04-13T10:56:31.062Z,23.41
2023-04-13T10:58:57.951Z,22.03
2023-04-13T11:01:25.422Z,22.40
2023-04-13T11:04:04.112Z,23.00
2023-04-13T11:06:38.544Z,23.44
2023-04-13T11:09:07.069Z,23.79
2023-04-13T11:11:36.219Z,24.08
2023-04-13T11:14:03.880Z,24.35
2023-04-13T11:16:31.678Z,24.21
2023-04-13T11:19:02.797Z,24.27
2023-04-13T11:21:30.153Z,23.75
2023-04-13T11:24:02.750Z,24.27
2023-04-13T11:26:38.204Z,24.03
2023-04-13T11:29:05.329Z,24.36
2023-04-13T11:31:39.268Z,24.34
2023-04-13T11:34:06.785Z,24.55
2023-04-13T11:36:33.600Z,24.62
2023-04-13T11:39:02.029Z,25.02
2023-04-13T11:41:30.254Z,25.41
2023-04-13T11:43:57.195Z,25.16
2023-04-13T11:46:27.105Z,25.57
2023-04-13T11:48:54.992Z,25.48
2023-04-13T11:51:22.364Z,25.30
2023-04-13T11:53:50.634Z,25.46
2023-04-13T11:56:18.248Z,25.52
2023-04-13T11:58:45.013Z,25.58
2023-04-13T12:01:20.247Z,25.83
2023-04-13T12:06:48.736Z,26.31
2023-04-13T12:09:17.932Z,26.15
2023-04-13T12:11:52.040Z,26.28
2023-04-13T12:19:43.369Z,26.15
2023-04-13T12:22:12.133Z,26.80
2023-04-13T12:24:40.160Z,26.88
2023-04-13T12:27:17.044Z,27.23
2023-04-13T12:29:44.776Z,27.14
2023-04-13T12:32:15.102Z,27.12
2023-04-13T12:34:42.595Z,27.06
2023-04-13T12:37:34.637Z,27.26
2023-04-13T12:40:01.883Z,27.74
2023-04-13T12:42:28.666Z,28.08
2023-04-13T12:45:38.742Z,27.97
2023-04-13T12:48:06.634Z,27.99
2023-04-13T12:50:33.768Z,27.94
2023-04-13T12:53:00.360Z,27.92
2023-04-13T12:55:27.249Z,27.73
2023-04-13T12:57:53.883Z,27.64
2023-04-13T13:00:21.230Z,27.94
2023-04-13T13:02:52.163Z,28.11
2023-04-13T13:05:23.717Z,28.41
2023-04-13T13:07:50.525Z,28.06
2023-04-13T13:12:48.930Z,28.48
2023-04-13T13:15:43.520Z,28.79
2023-04-13T13:18:11.413Z,28.15
2023-04-13T13:20:41.595Z,28.83
2023-04-13T13:23:12.467Z,29.24
2023-04-13T13:25:42.432Z,28.75
2023-04-13T13:28:14.592Z,28.81
2023-04-13T13:30:42.421Z,28.31
2023-04-13T13:33:09.211Z,27.91
2023-04-13T13:35:35.987Z,27.97
2023-04-13T13:38:03.384Z,27.47
2023-04-13T13:40:30.081Z,27.40
2023-04-13T13:42:56.865Z,27.13
2023-04-13T13:45:23.857Z,26.75
2023-04-13T13:47:52.218Z,27.01
2023-04-13T13:50:21.739Z,27.65
2023-04-13T13:53:03.080Z,27.44
2023-04-13T13:55:37.055Z,27.81
2023-04-13T13:58:03.869Z,27.30
2023-04-13T14:00:31.172Z,26.66
2023-04-13T14:02:57.900Z,26.96
2023-04-13T14:05:24.818Z,26.44
2023-04-13T14:07:51.470Z,26.93
2023-04-13T14:10:18.205Z,27.18
2023-04-13T14:12:47.385Z,27.26
2023-04-13T14:15:15.722Z,27.28
2023-04-13T14:17:42.554Z,28.15
2023-04-13T14:20:10.495Z,28.43
2023-04-13T14:22:37.941Z,28.81
2023-04-13T14:25:06.089Z,28.92
2023-04-13T14:27:33.116Z,28.57
2023-04-13T14:29:59.915Z,28.30
2023-04-13T14:32:27.019Z,28.47
2023-04-13T14:34:53.698Z,28.65
2023-04-13T14:37:20.465Z,29.06
2023-04-13T14:39:47.091Z,29.04
2023-04-13T14:42:13.879Z,29.26
2023-04-13T14:44:40.551Z,28.05
2023-04-13T14:47:08.953Z,28.01
2023-04-13T14:49:36.225Z,27.50
2023-04-13T14:52:03.678Z,27.91
2023-04-13T14:54:30.526Z,27.79
2023-04-13T14:56:57.941Z,27.79
2023-04-13T14:59:25.347Z,27.69
2023-04-13T15:01:52.140Z,27.25
2023-04-13T15:04:19.741Z,25.65
2023-04-13T15:06:49.394Z,25.86
2023-04-13T15:09:16.176Z,26.00
2023-04-13T15:11:42.887Z,25.97
2023-04-13T15:14:09.475Z,25.18
2023-04-13T15:16:36.554Z,25.95
2023-04-13T15:19:04.127Z,26.45
2023-04-13T15:21:31.765Z,26.40
2023-04-13T15:23:58.447Z,26.07
2023-04-13T15:26:26.443Z,25.72
2023-04-13T15:28:53.496Z,25.37
2023-04-13T15:31:21.583Z,25.57
2023-04-13T15:33:48.240Z,25.34
2023-04-13T15:36:16.152Z,25.05
2023-04-13T15:38:43.262Z,25.50
2023-04-13T15:41:11.346Z,25.20
2023-04-13T15:43:38.351Z,24.57
2023-04-13T15:46:05.316Z,24.51
2023-04-13T15:48:32.335Z,24.52
2023-04-13T15:51:00.880Z,24.88
2023-04-13T15:53:29.110Z,24.08
2023-04-13T15:55:56.938Z,24.41
2023-04-13T15:58:23.662Z,24.29
2023-04-13T16:01:03.724Z,24.24
2023-04-13T16:03:31.801Z,24.16
2023-04-13T16:05:59.551Z,24.02
2023-04-13T16:08:26.189Z,23.95
2023-04-13T16:10:54.595Z,24.30
2023-04-13T16:13:22.185Z,23.67
2023-04-13T16:15:53.297Z,23.68
2023-04-13T16:18:21.885Z,23.80
2023-04-13T16:20:49.695Z,23.67
2023-04-13T16:23:17.531Z,23.75
2023-04-13T16:25:44.210Z,24.06
2023-04-13T16:28:10.881Z,23.90
2023-04-13T16:30:37.770Z,23.89
2023-04-13T16:33:05.674Z,23.56
2023-04-13T16:35:33.220Z,23.58
2023-04-13T16:38:00.006Z,23.24
2023-04-13T16:40:26.681Z,23.26
2023-04-13T16:42:53.292Z,23.42
2023-04-13T16:45:20.292Z,23.33
2023-04-13T16:47:47.051Z,23.70
2023-04-13T16:50:16.191Z,23.92
2023-04-13T16:52:43.010Z,23.71
2023-04-13T16:55:14.142Z,24.14
2023-04-13T16:57:42.030Z,24.22
2023-04-13T17:00:10.245Z,24.06
2023-04-13T17:02:38.176Z,24.05
2023-04-13T17:05:08.671Z,23.68
2023-04-13T17:07:36.806Z,23.65
2023-04-13T17:10:04.456Z,23.40
2023-04-13T17:12:31.425Z,23.60
2023-04-13T17:14:58.606Z,23.58
2023-04-13T17:17:25.354Z,23.59
2023-04-13T17:19:53.801Z,23.64
2023-04-13T17:22:22.781Z,23.26
2023-04-13T17:24:49.750Z,23.52
2023-04-13T17:27:16.595Z,23.58
2023-04-13T17:29:43.440Z,23.25
2023-04-13T17:32:10.198Z,23.38
2023-04-13T17:34:37.216Z,23.30
2023-04-13T17:37:03.848Z,23.10
2023-04-13T17:39:30.485Z,23.22
2023-04-13T17:41:58.040Z,23.09
2023-04-13T17:44:24.808Z,22.55
2023-04-13T17:46:54.294Z,22.61
2023-04-13T17:49:22.208Z,22.87
2023-04-13T17:51:49.081Z,22.90
2023-04-13T17:54:16.391Z,22.68
2023-04-13T17:56:43.297Z,22.08
2023-04-13T17:59:14.537Z,22.60
2023-04-13T18:01:43.201Z,22.16
2023-04-13T18:04:11.320Z,22.06
2023-04-13T18:06:39.609Z,22.32
2023-04-13T18:09:06.567Z,22.29
2023-04-13T18:11:33.601Z,21.93
2023-04-13T18:14:01.303Z,22.22
2023-04-13T18:16:28.129Z,22.60
2023-04-13T18:18:54.796Z,22.74
2023-04-13T18:21:21.368Z,22.89
2023-04-13T18:23:48.202Z,22.67
2023-04-13T18:26:15.901Z,22.72
2023-04-13T18:28:42.788Z,22.67
2023-04-13T18:31:09.693Z,22.36
2023-04-13T18:33:36.387Z,22.37
2023-04-13T18:36:03.144Z,22.34
2023-04-13T18:38:29.686Z,22.42
2023-04-13T18:40:56.294Z,22.29
2023-04-13T18:43:23.379Z,22.34
2023-04-13T18:45:50.082Z,22.35
2023-04-13T18:48:16.853Z,21.93
2023-04-13T18:50:44.375Z,22.08
2023-04-13T18:53:11.052Z,21.86
2023-04-13T18:55:38.192Z,21.69
2023-04-13T18:58:04.901Z,21.72
2023-04-13T19:00:32.424Z,21.73
2023-04-13T19:03:00.060Z,21.68
2023-04-13T19:05:27.812Z,21.86
2023-04-13T19:07:58.866Z,22.10
2023-04-13T19:10:26.576Z,22.05
2023-04-13T19:12:53.653Z,22.12
2023-04-13T19:15:22.171Z,22.08
2023-04-13T19:17:50.530Z,22.14
2023-04-13T19:20:17.541Z,21.77
2023-04-13T19:22:44.262Z,20.73
2023-04-13T19:25:14.791Z,20.99
2023-04-13T19:27:43.114Z,20.64
2023-04-13T19:30:10.433Z,20.39
2023-04-13T19:32:37.574Z,20.20
2023-04-13T19:35:05.398Z,20.33
2023-04-13T19:37:32.582Z,20.00
2023-04-13T19:39:59.306Z,20.21
2023-04-13T19:42:26.255Z,19.50
2023-04-13T19:44:52.940Z,19.25
2023-04-13T19:47:19.805Z,19.36
2023-04-13T19:49:46.556Z,19.54
2023-04-13T19:52:16.401Z,19.16
2023-04-13T19:54:43.753Z,19.55
2023-04-13T19:57:11.217Z,19.53
2023-04-13T19:59:39.740Z,19.58
2023-04-13T20:02:06.975Z,19.48
2023-04-13T20:04:33.954Z,18.88
2023-04-13T20:07:01.306Z,19.23
2023-04-13T20:09:28.286Z,19.60
2023-04-13T20:11:54.951Z,19.78
2023-04-13T20:14:21.888Z,19.57
2023-04-13T20:16:48.647Z,19.21
2023-04-13T20:19:15.611Z,19.34
2023-04-13T20:21:42.389Z,19.58
2023-04-13T20:24:09.300Z,19.25
2023-04-13T20:26:35.956Z,19.40
2023-04-13T20:29:03.639Z,19.49
2023-04-13T20:31:32.583Z,19.53
2023-04-13T20:33:59.476Z,19.55
2023-04-13T20:36:27.156Z,19.56
2023-04-13T20:38:54.763Z,19.66
2023-04-13T20:41:21.928Z,19.26
2023-04-13T20:43:50.748Z,19.13
2023-04-13T20:46:17.491Z,19.31
2023-04-13T20:51:15.858Z,19.12
2023-04-13T20:53:43.033Z,19.11
2023-04-13T20:56:09.763Z,19.04
2023-04-13T20:58:37.475Z,18.60
2023-04-13T21:01:04.680Z,18.85
2023-04-13T21:03:32.362Z,18.92
2023-04-13T21:05:59.655Z,18.99
2023-04-13T21:08:27.435Z,18.99
2023-04-13T21:10:54.092Z,19.08
2023-04-13T21:13:21.892Z,19.00
2023-04-13T21:15:48.449Z,18.41
2023-04-13T21:18:15.359Z,18.84
2023-04-13T21:20:43.592Z,18.48
2023-04-13T21:23:10.718Z,18.27
2023-04-13T21:25:37.378Z,18.49
2023-04-13T21:28:04.178Z,18.62
2023-04-13T21:30:31.066Z,18.51
2023-04-13T21:32:57.740Z,17.97
2023-04-13T21:35:24.379Z,18.29
2023-04-13T21:37:50.994Z,17.74
2023-04-13T21:40:18.424Z,18.37
2023-04-13T21:42:45.094Z,18.54
2023-04-13T21:45:11.819Z,18.30
2023-04-13T21:47:38.467Z,18.49
2023-04-13T21:50:05.828Z,18.06
2023-04-13T21:52:32.533Z,17.73
2023-04-13T21:54:59.936Z,17.96
2023-04-13T21:57:26.799Z,18.12
2023-04-13T21:59:54.554Z,18.09
2023-04-13T22:02:21.610Z,17.82
2023-04-13T22:04:48.241Z,17.81
2023-04-13T22:07:14.948Z,17.83
2023-04-13T22:09:41.722Z,18.10
2023-04-13T22:12:10.785Z,18.24
2023-04-13T22:14:37.496Z,17.65
2023-04-13T22:17:04.112Z,17.73
2023-04-13T22:19:30.857Z,17.56
2023-04-13T22:21:57.530Z,17.59
2023-04-13T22:24:24.207Z,17.96
2023-04-13T22:26:51.313Z,17.98
2023-04-13T22:29:17.992Z,18.01
2023-04-13T22:31:45.849Z,18.10
2023-04-13T22:34:12.631Z,17.85
2023-04-13T22:36:39.415Z,17.61
2023-04-13T22:39:05.977Z,17.90
2023-04-13T22:41:32.803Z,17.57
2023-04-13T22:43:59.385Z,17.67
2023-04-13T22:46:26.455Z,17.58
2023-04-13T22:48:53.293Z,17.31
2023-04-13T22:51:20.157Z,17.17
2023-04-13T22:53:49.796Z,17.33
2023-04-13T22:56:16.614Z,17.62
2023-04-13T22:58:43.431Z,17.70
2023-04-13T23:01:10.218Z,17.80
2023-04-13T23:03:36.934Z,17.83
2023-04-13T23:06:06.559Z,17.77
2023-04-13T23:08:33.242Z,17.81
2023-04-13T23:11:09.809Z,17.70
2023-04-13T23:13:36.902Z,17.24
2023-04-13T23:16:05.178Z,17.49
2023-04-13T23:18:31.975Z,17.43
2023-04-13T23:20:58.544Z,17.59
2023-04-13T23:23:27.278Z,17.62
2023-04-13T23:25:53.876Z,17.65
2023-04-13T23:28:20.838Z,17.35
2023-04-13T23:30:47.493Z,17.17
2023-04-13T23:33:14.112Z,16.97
2023-04-13T23:35:40.716Z,17.22
2023-04-13T23:38:07.476Z,17.21
2023-04-13T23:40:34.299Z,15.98
2023-04-13T23:43:01.013Z,15.98
2023-04-13T23:45:28.601Z,16.35
2023-04-13T23:47:55.654Z,16.79
2023-04-13T23:50:22.471Z,17.07
2023-04-13T23:52:49.148Z,15.95
2023-04-13T23:55:16.301Z,16.72
2023-04-13T23:57:43.012Z,16.77
